createdAt,value
2018-12-14T00:00:22.669Z,6.27
2018-12-14T00:02:54.317Z,7.70
2018-12-14T00:05:25.859Z,5.73
2018-12-14T00:07:57.378Z,6.50
2018-12-14T00:10:29.083Z,5.87
2018-12-14T00:13:00.745Z,6.27
2018-12-14T00:15:32.082Z,6.60
2018-12-14T00:18:02.435Z,7.57
2018-12-14T00:20:32.979Z,10.10
2018-12-14T00:23:04.407Z,7.67
2018-12-14T00:25:37.595Z,5.73
2018-12-14T00:28:09.063Z,5.50
2018-12-14T00:30:40.988Z,6.90
2018-12-14T00:33:12.757Z,7.00
2018-12-14T00:35:44.720Z,6.23
2018-12-14T00:38:16.226Z,7.40
2018-12-14T00:40:48.084Z,6.80
2018-12-14T00:43:19.650Z,7.50
2018-12-14T00:45:51.151Z,7.20
2018-12-14T00:48:22.524Z,7.43
2018-12-14T00:50:54.091Z,7.37
2018-12-14T00:53:25.952Z,8.70
2018-12-14T00:55:57.456Z,7.67
2018-12-14T00:58:28.968Z,7.67
2018-12-14T01:01:00.402Z,7.23
2018-12-14T01:03:32.026Z,8.17
2018-12-14T01:06:03.804Z,8.73
2018-12-14T01:08:35.504Z,7.87
2018-12-14T01:11:07.095Z,8.43
2018-12-14T01:13:38.611Z,8.57
2018-12-14T01:16:10.437Z,8.20
2018-12-14T01:18:41.963Z,9.37
2018-12-14T01:21:13.537Z,9.83
2018-12-14T01:23:44.989Z,9.57
2018-12-14T01:26:17.937Z,8.80
2018-12-14T01:28:49.501Z,9.20
2018-12-14T01:31:21.215Z,9.00
2018-12-14T01:33:52.704Z,8.87
2018-12-14T01:36:24.504Z,11.10
2018-12-14T01:38:56.170Z,8.77
2018-12-14T01:41:27.937Z,12.17
2018-12-14T01:43:59.369Z,9.67
2018-12-14T01:46:30.996Z,9.10
2018-12-14T01:49:02.360Z,9.53
2018-12-14T01:51:34.310Z,8.77
2018-12-14T01:54:05.814Z,9.47
2018-12-14T01:56:37.611Z,10.00
2018-12-14T01:59:08.998Z,11.37
2018-12-14T02:01:40.730Z,9.03
2018-12-14T02:04:12.346Z,10.47
2018-12-14T02:06:43.917Z,8.43
2018-12-14T02:09:15.527Z,9.90
2018-12-14T02:11:47.199Z,10.70
2018-12-14T02:14:19.073Z,9.13
2018-12-14T02:16:50.874Z,9.43
2018-12-14T02:19:22.822Z,10.57
2018-12-14T02:21:54.317Z,9.60
2018-12-14T02:24:27.356Z,10.13
2018-12-14T02:26:58.976Z,11.20
2018-12-14T02:29:30.526Z,10.53
2018-12-14T02:32:02.130Z,11.23
2018-12-14T02:34:36.877Z,12.27
2018-12-14T02:37:08.524Z,11.90
2018-12-14T02:39:40.096Z,10.43
2018-12-14T02:42:19.105Z,10.50
2018-12-14T02:44:45.221Z,13.73
2018-12-14T02:47:17.346Z,10.87
2018-12-14T02:49:48.658Z,12.43
2018-12-14T02:52:20.224Z,10.80
2018-12-14T02:54:51.654Z,11.13
2018-12-14T02:57:24.013Z,10.37
2018-12-14T02:59:55.628Z,11.97
2018-12-14T03:02:27.219Z,11.77
2018-12-14T03:04:58.633Z,11.73
2018-12-14T03:07:30.322Z,11.97
2018-12-14T03:10:01.791Z,12.07
2018-12-14T03:12:33.530Z,10.77
2018-12-14T03:15:05.348Z,10.17
2018-12-14T03:17:36.957Z,12.57
2018-12-14T03:20:09.037Z,13.00
2018-12-14T03:22:40.755Z,9.63
2018-12-14T03:25:12.411Z,10.03
2018-12-14T03:27:43.843Z,13.20
2018-12-14T03:30:15.364Z,11.50
2018-12-14T03:32:46.761Z,13.87
2018-12-14T03:35:18.230Z,11.13
2018-12-14T03:37:50.283Z,12.20
2018-12-14T03:40:21.891Z,12.23
2018-12-14T03:42:53.873Z,11.60
2018-12-14T03:45:25.280Z,12.23
2018-12-14T03:47:56.998Z,13.87
2018-12-14T03:50:28.784Z,12.27
2018-12-14T03:53:00.119Z,12.20
2018-12-14T03:55:31.908Z,12.43
2018-12-14T03:58:03.418Z,12.07
2018-12-14T04:00:35.304Z,12.53
2018-12-14T04:03:07.139Z,14.10
2018-12-14T04:05:39.022Z,12.83
2018-12-14T04:08:10.373Z,12.13
2018-12-14T04:10:41.863Z,13.57
2018-12-14T04:13:13.523Z,12.73
2018-12-14T04:15:45.071Z,10.83
2018-12-14T04:18:16.739Z,12.60
2018-12-14T04:20:48.145Z,13.60
2018-12-14T04:23:19.904Z,11.63
2018-12-14T04:25:51.281Z,13.13
2018-12-14T04:28:22.882Z,13.07
2018-12-14T04:30:55.443Z,11.53
2018-12-14T04:33:27.196Z,10.93
2018-12-14T04:35:58.802Z,10.77
2018-12-14T04:38:30.315Z,10.70
2018-12-14T04:41:01.918Z,10.13
2018-12-14T04:43:33.413Z,12.97
2018-12-14T04:46:04.973Z,11.27
2018-12-14T04:48:36.907Z,10.63
2018-12-14T04:51:08.446Z,11.07
2018-12-14T04:53:39.981Z,11.67
2018-12-14T04:56:11.327Z,11.23
2018-12-14T04:58:43.161Z,11.03
2018-12-14T05:01:15.014Z,10.60
2018-12-14T05:03:46.573Z,11.07
2018-12-14T05:06:18.158Z,11.80
2018-12-14T05:08:49.821Z,10.73
2018-12-14T05:11:21.195Z,10.40
2018-12-14T05:13:51.676Z,11.73
2018-12-14T05:16:23.572Z,12.60
2018-12-14T05:18:56.076Z,11.87
2018-12-14T05:21:29.780Z,11.17
2018-12-14T05:24:01.669Z,10.63
2018-12-14T05:26:34.230Z,12.77
2018-12-14T05:29:05.778Z,13.37
2018-12-14T05:31:36.139Z,11.43
2018-12-14T05:34:06.798Z,11.50
2018-12-14T05:36:37.261Z,10.93
2018-12-14T05:39:08.646Z,11.10
2018-12-14T05:41:39.173Z,12.77
2018-12-14T05:44:09.709Z,10.07
2018-12-14T05:46:39.904Z,11.73
2018-12-14T05:49:10.495Z,11.47
2018-12-14T05:51:40.913Z,12.63
2018-12-14T05:54:11.403Z,11.67
2018-12-14T05:56:41.799Z,10.57
2018-12-14T05:59:12.253Z,11.70
2018-12-14T06:01:42.692Z,11.03
2018-12-14T06:04:13.407Z,10.47
2018-12-14T06:06:44.144Z,11.73
2018-12-14T06:09:15.011Z,10.40
2018-12-14T06:11:45.551Z,12.47
2018-12-14T06:14:15.920Z,10.33
2018-12-14T06:16:46.354Z,11.73
2018-12-14T06:19:16.863Z,9.87
2018-12-14T06:21:47.268Z,11.77
2018-12-14T06:24:17.863Z,13.40
2018-12-14T06:26:49.808Z,11.23
2018-12-14T06:29:21.555Z,10.77
2018-12-14T06:31:53.198Z,11.90
2018-12-14T06:34:23.864Z,11.90
2018-12-14T06:36:55.513Z,11.23
2018-12-14T06:39:26.219Z,11.00
2018-12-14T06:41:56.896Z,11.20
2018-12-14T06:44:27.350Z,13.07
2018-12-14T06:46:57.760Z,11.80
2018-12-14T06:49:28.553Z,11.03
2018-12-14T06:51:59.072Z,12.43
2018-12-14T06:54:29.543Z,11.77
2018-12-14T06:57:00.038Z,12.07
2018-12-14T06:59:30.645Z,12.10
2018-12-14T07:02:01.367Z,13.17
2018-12-14T07:04:34.494Z,12.37
2018-12-14T07:07:04.990Z,11.73
2018-12-14T07:09:36.019Z,12.43
2018-12-14T07:12:06.687Z,12.10
2018-12-14T07:14:37.612Z,14.60
2018-12-14T07:17:10.759Z,14.23
2018-12-14T07:19:44.242Z,12.30
2018-12-14T07:22:14.894Z,12.30
2018-12-14T07:24:45.448Z,12.77
2018-12-14T07:27:16.626Z,11.90
2018-12-14T07:29:47.034Z,12.03
2018-12-14T07:32:17.495Z,11.43
2018-12-14T07:34:47.978Z,11.93
2018-12-14T07:37:18.265Z,12.47
2018-12-14T07:39:48.656Z,11.50
2018-12-14T07:42:19.112Z,11.90
2018-12-14T07:44:49.677Z,12.27
2018-12-14T07:47:20.270Z,12.03
2018-12-14T07:49:50.501Z,11.43
2018-12-14T07:52:20.892Z,10.60
2018-12-14T07:54:51.380Z,11.80
2018-12-14T07:57:21.764Z,12.17
2018-12-14T07:59:53.119Z,11.27
2018-12-14T08:02:23.397Z,11.27
2018-12-14T08:04:53.805Z,12.63
2018-12-14T08:07:24.091Z,13.43
2018-12-14T08:09:54.814Z,11.67
2018-12-14T08:12:25.140Z,12.40
2018-12-14T08:14:55.162Z,12.60
2018-12-14T08:17:25.103Z,11.57
2018-12-14T08:19:55.099Z,12.07
2018-12-14T08:22:25.053Z,11.60
2018-12-14T08:24:55.006Z,10.57
2018-12-14T08:27:24.974Z,11.30
2018-12-14T08:29:54.943Z,11.57
2018-12-14T08:32:24.927Z,11.80
2018-12-14T08:34:54.866Z,11.60
2018-12-14T08:37:24.890Z,11.77
2018-12-14T08:39:54.854Z,11.67
2018-12-14T08:42:24.887Z,11.70
2018-12-14T08:44:54.887Z,12.17
2018-12-14T08:47:26.125Z,12.37
2018-12-14T08:49:56.258Z,12.00
2018-12-14T08:52:26.203Z,12.17
2018-12-14T08:54:56.182Z,12.90
2018-12-14T08:57:26.158Z,10.73
2018-12-14T08:59:56.106Z,10.53
2018-12-14T09:02:26.081Z,9.27
2018-12-14T09:04:57.302Z,11.90
2018-12-14T09:07:28.003Z,11.40
2018-12-14T09:09:58.190Z,11.57
2018-12-14T09:12:28.559Z,9.60
2018-12-14T09:14:58.541Z,11.80
2018-12-14T09:17:28.482Z,11.40
2018-12-14T09:20:02.012Z,11.87
2018-12-14T09:22:35.439Z,10.50
2018-12-14T09:25:07.418Z,10.40
2018-12-14T09:27:40.060Z,10.57
2018-12-14T09:30:10.198Z,10.00
2018-12-14T09:32:40.146Z,10.77
2018-12-14T09:35:10.110Z,9.67
2018-12-14T09:37:40.060Z,9.43
2018-12-14T09:40:10.309Z,9.57
2018-12-14T09:42:40.290Z,9.30
2018-12-14T09:45:10.405Z,9.97
2018-12-14T09:47:40.351Z,8.97
2018-12-14T09:50:10.381Z,9.87
2018-12-14T09:52:40.336Z,9.77
2018-12-14T09:55:10.424Z,9.17
2018-12-14T09:57:40.442Z,9.13
2018-12-14T10:00:10.676Z,8.87
2018-12-14T10:02:40.641Z,8.90
2018-12-14T10:05:11.046Z,9.67
2018-12-14T10:07:46.677Z,9.47
2018-12-14T10:10:13.021Z,8.93
2018-12-14T10:12:43.030Z,9.87
2018-12-14T10:15:12.982Z,10.37
2018-12-14T10:17:42.941Z,8.93
2018-12-14T10:20:13.566Z,7.87
2018-12-14T10:22:45.081Z,10.20
2018-12-14T10:25:15.046Z,9.00
2018-12-14T10:27:47.505Z,9.17
2018-12-14T10:30:17.569Z,9.43
2018-12-14T10:32:49.692Z,9.90
2018-12-14T10:35:21.207Z,9.20
2018-12-14T10:37:51.245Z,9.40
2018-12-14T10:40:21.177Z,9.40
2018-12-14T10:42:51.151Z,10.23
2018-12-14T10:45:22.689Z,10.60
2018-12-14T10:47:52.787Z,10.60
2018-12-14T10:50:22.741Z,8.60
2018-12-14T10:52:52.729Z,11.90
2018-12-14T10:55:22.686Z,10.67
2018-12-14T10:57:53.093Z,10.03
2018-12-14T11:00:28.040Z,9.47
2018-12-14T11:02:57.973Z,11.67
2018-12-14T11:05:27.931Z,12.80
2018-12-14T11:07:57.876Z,10.07
2018-12-14T11:10:27.812Z,11.13
2018-12-14T11:12:57.754Z,11.00
2018-12-14T11:15:27.689Z,10.60
2018-12-14T11:17:57.617Z,10.93
2018-12-14T11:20:27.572Z,11.00
2018-12-14T11:22:57.501Z,10.27
2018-12-14T11:25:27.442Z,10.37
2018-12-14T11:27:57.394Z,11.80
2018-12-14T11:30:27.363Z,10.73
2018-12-14T11:32:57.302Z,10.33
2018-12-14T11:35:27.294Z,11.73
2018-12-14T11:37:57.243Z,9.67
2018-12-14T11:40:27.241Z,11.30
2018-12-14T11:42:57.222Z,13.93
2018-12-14T11:45:27.193Z,11.73
2018-12-14T11:47:57.141Z,11.50
2018-12-14T11:50:27.109Z,10.33
2018-12-14T11:52:57.043Z,11.03
2018-12-14T11:55:27.109Z,11.83
2018-12-14T11:57:57.046Z,10.87
2018-12-14T12:00:27.073Z,10.17
2018-12-14T12:02:57.021Z,9.97
2018-12-14T12:05:27.011Z,9.33
2018-12-14T12:07:57.286Z,12.97
2018-12-14T12:10:27.282Z,12.13
2018-12-14T12:12:57.210Z,11.13
2018-12-14T12:15:27.219Z,11.33
2018-12-14T12:17:57.155Z,10.87
2018-12-14T12:20:27.524Z,11.30
2018-12-14T12:22:57.635Z,11.10
2018-12-14T12:25:27.646Z,12.33
2018-12-14T12:28:03.850Z,11.07
2018-12-14T12:30:34.882Z,11.83
2018-12-14T12:33:05.870Z,11.97
2018-12-14T12:35:36.995Z,13.07
2018-12-14T12:38:08.021Z,10.93
2018-12-14T12:40:38.058Z,11.77
2018-12-14T12:43:09.210Z,9.17
2018-12-14T12:45:39.355Z,11.30
2018-12-14T12:48:09.310Z,11.53
2018-12-14T12:50:39.307Z,11.63
2018-12-14T12:53:09.275Z,10.47
2018-12-14T12:55:39.259Z,10.73
2018-12-14T12:58:09.177Z,10.87
2018-12-14T13:00:39.165Z,11.07
2018-12-14T13:03:09.121Z,11.07
2018-12-14T13:05:39.108Z,11.90
2018-12-14T13:08:09.072Z,10.80
2018-12-14T13:10:39.047Z,12.70
2018-12-14T13:13:09.026Z,12.57
2018-12-14T13:15:38.979Z,10.43
2018-12-14T13:18:08.968Z,10.70
2018-12-14T13:20:39.090Z,11.03
2018-12-14T13:23:09.094Z,11.00
2018-12-14T13:25:39.794Z,10.47
2018-12-14T13:28:10.234Z,13.60
2018-12-14T13:30:40.570Z,13.10
2018-12-14T13:33:11.343Z,12.33
2018-12-14T13:35:41.478Z,10.13
2018-12-14T13:38:11.491Z,11.83
2018-12-14T13:40:41.444Z,10.73
2018-12-14T13:43:11.498Z,11.37
2018-12-14T13:45:41.442Z,11.33
2018-12-14T13:48:11.445Z,12.10
2018-12-14T13:50:41.398Z,11.67
2018-12-14T13:53:11.472Z,11.57
2018-12-14T13:55:41.429Z,11.90
2018-12-14T13:58:11.428Z,11.93
2018-12-14T14:00:41.401Z,12.37
2018-12-14T14:03:11.378Z,11.33
2018-12-14T14:05:41.331Z,11.97
2018-12-14T14:08:11.334Z,12.40
2018-12-14T14:10:41.276Z,11.73
2018-12-14T14:13:11.256Z,11.50
2018-12-14T14:15:41.195Z,13.07
2018-12-14T14:18:11.158Z,13.70
2018-12-14T14:20:41.194Z,12.77
2018-12-14T14:23:11.194Z,13.80
2018-12-14T14:25:41.654Z,12.83
2018-12-14T14:28:11.656Z,13.83
2018-12-14T14:30:41.621Z,12.07
2018-12-14T14:33:11.751Z,11.87
2018-12-14T14:35:41.709Z,11.57
2018-12-14T14:38:11.711Z,13.07
2018-12-14T14:40:41.639Z,11.20
2018-12-14T14:43:11.670Z,14.20
2018-12-14T14:45:41.637Z,14.57
2018-12-14T14:48:11.619Z,13.83
2018-12-14T14:50:41.630Z,13.77
2018-12-14T14:53:11.717Z,13.83
2018-12-14T14:55:41.751Z,15.60
2018-12-14T14:58:11.738Z,14.33
2018-12-14T15:00:41.726Z,13.47
2018-12-14T15:03:11.679Z,14.50
2018-12-14T15:05:41.678Z,14.00
2018-12-14T15:08:11.655Z,14.13
2018-12-14T15:10:41.645Z,13.40
2018-12-14T15:13:11.590Z,15.10
2018-12-14T15:15:41.578Z,14.90
2018-12-14T15:18:11.515Z,15.33
2018-12-14T15:20:41.614Z,14.30
2018-12-14T15:23:11.657Z,14.37
2018-12-14T15:25:41.819Z,15.13
2018-12-14T15:28:11.793Z,16.63
2018-12-14T15:30:41.786Z,15.80
2018-12-14T15:33:11.846Z,14.73
2018-12-14T15:35:41.889Z,14.53
2018-12-14T15:38:12.017Z,15.77
2018-12-14T15:40:42.178Z,15.60
2018-12-14T15:43:12.187Z,17.00
2018-12-14T15:45:42.210Z,20.40
2018-12-14T15:48:12.174Z,17.57
2018-12-14T15:50:43.052Z,17.67
2018-12-14T15:53:13.791Z,16.80
2018-12-14T15:55:46.383Z,17.20
2018-12-14T15:58:16.373Z,16.00
2018-12-14T16:00:46.398Z,21.80
2018-12-14T16:03:16.593Z,21.73
2018-12-14T16:05:46.629Z,23.13
2018-12-14T16:08:16.584Z,20.13
2018-12-14T16:10:46.582Z,19.67
2018-12-14T16:13:16.530Z,19.07
2018-12-14T16:15:46.513Z,17.30
2018-12-14T16:18:16.470Z,16.97
2018-12-14T16:20:46.507Z,17.93
2018-12-14T16:23:16.471Z,17.40
2018-12-14T16:25:46.614Z,17.57
2018-12-14T16:28:16.547Z,17.83
2018-12-14T16:30:46.599Z,17.77
2018-12-14T16:33:16.578Z,19.43
2018-12-14T16:35:46.633Z,18.97
2018-12-14T16:38:16.591Z,19.90
2018-12-14T16:40:46.567Z,19.87
2018-12-14T16:43:16.530Z,20.20
2018-12-14T16:45:47.797Z,18.57
2018-12-14T16:48:17.901Z,20.73
2018-12-14T16:50:48.027Z,21.90
2018-12-14T16:53:18.618Z,19.73
2018-12-14T16:55:48.952Z,20.97
2018-12-14T16:58:18.996Z,18.53
2018-12-14T17:00:48.935Z,18.33
2018-12-14T17:03:19.017Z,24.73
2018-12-14T17:05:49.113Z,22.80
2018-12-14T17:08:19.070Z,21.87
2018-12-14T17:10:49.045Z,18.83
2018-12-14T17:13:18.987Z,20.33
2018-12-14T17:15:48.937Z,20.20
2018-12-14T17:18:18.902Z,21.53
2018-12-14T17:20:48.862Z,21.93
2018-12-14T17:23:18.827Z,20.93
2018-12-14T17:25:48.805Z,23.33
2018-12-14T17:28:18.777Z,22.30
2018-12-14T17:30:48.734Z,24.90
2018-12-14T17:33:18.696Z,26.97
2018-12-14T17:35:48.684Z,31.37
2018-12-14T17:38:18.632Z,30.57
2018-12-14T17:40:48.597Z,27.97
2018-12-14T17:43:18.562Z,27.20
2018-12-14T17:45:48.671Z,27.90
2018-12-14T17:48:18.641Z,28.40
2018-12-14T17:50:48.594Z,29.33
2018-12-14T17:53:18.525Z,35.23
2018-12-14T17:55:48.469Z,35.77
2018-12-14T17:58:18.424Z,30.70
2018-12-14T18:00:48.395Z,31.10
2018-12-14T18:03:18.412Z,30.47
2018-12-14T18:05:48.379Z,30.67
2018-12-14T18:08:18.390Z,29.80
2018-12-14T18:10:48.349Z,27.50
2018-12-14T18:13:18.351Z,28.40
2018-12-14T18:15:48.302Z,29.27
2018-12-14T18:18:18.294Z,27.73
2018-12-14T18:20:48.280Z,28.97
2018-12-14T18:23:18.268Z,30.37
2018-12-14T18:25:48.214Z,27.70
2018-12-14T18:28:18.293Z,27.57
2018-12-14T18:30:48.229Z,28.90
2018-12-14T18:33:18.242Z,25.87
2018-12-14T18:35:48.223Z,29.80
2018-12-14T18:38:18.170Z,29.13
2018-12-14T18:40:48.108Z,29.17
2018-12-14T18:43:18.115Z,26.40
2018-12-14T18:45:53.190Z,27.87
2018-12-14T18:48:20.055Z,27.27
2018-12-14T18:50:50.030Z,35.73
2018-12-14T18:53:19.986Z,31.50
2018-12-14T18:55:49.958Z,37.77
2018-12-14T18:58:19.921Z,37.37
2018-12-14T19:00:49.879Z,37.17
2018-12-14T19:03:19.862Z,43.57
2018-12-14T19:05:49.814Z,45.80
2018-12-14T19:08:19.793Z,56.73
2018-12-14T19:10:49.789Z,49.67
2018-12-14T19:13:19.742Z,33.23
2018-12-14T19:15:49.703Z,29.33
2018-12-14T19:18:19.674Z,30.87
2018-12-14T19:20:49.662Z,30.50
2018-12-14T19:23:21.373Z,30.43
2018-12-14T19:25:51.579Z,28.83
2018-12-14T19:28:21.553Z,30.43
2018-12-14T19:30:51.541Z,26.00
2018-12-14T19:33:21.540Z,28.83
2018-12-14T19:35:51.527Z,27.93
2018-12-14T19:38:21.497Z,28.53
2018-12-14T19:40:51.494Z,28.63
2018-12-14T19:43:21.525Z,27.57
2018-12-14T19:45:51.550Z,28.43
2018-12-14T19:48:21.486Z,28.50
2018-12-14T19:50:51.529Z,26.30
2018-12-14T19:53:21.501Z,27.93
2018-12-14T19:55:51.597Z,26.17
2018-12-14T19:58:21.537Z,26.27
2018-12-14T20:00:51.560Z,22.70
2018-12-14T20:03:21.539Z,28.20
2018-12-14T20:05:51.600Z,25.03
2018-12-14T20:08:21.673Z,27.37
2018-12-14T20:10:51.726Z,25.97
2018-12-14T20:13:21.693Z,25.90
2018-12-14T20:15:57.288Z,25.03
2018-12-14T20:18:23.754Z,24.60
2018-12-14T20:20:54.126Z,31.13
2018-12-14T20:23:24.129Z,30.30
2018-12-14T20:25:54.171Z,26.23
2018-12-14T20:28:24.118Z,25.50
2018-12-14T20:30:54.125Z,25.63
2018-12-14T20:33:24.105Z,25.27
2018-12-14T20:35:54.087Z,31.37
2018-12-14T20:38:24.049Z,30.60
2018-12-14T20:40:54.005Z,27.80
2018-12-14T20:43:24.135Z,25.43
2018-12-14T20:45:54.119Z,24.33
2018-12-14T20:48:24.098Z,29.33
2018-12-14T20:50:54.073Z,25.63
2018-12-14T20:53:24.035Z,40.40
2018-12-14T20:55:54.014Z,45.33
2018-12-14T20:58:23.989Z,27.90
2018-12-14T21:00:53.961Z,29.20
2018-12-14T21:03:28.586Z,31.37
2018-12-14T21:06:00.878Z,24.73
2018-12-14T21:08:31.562Z,27.17
2018-12-14T21:11:01.583Z,27.27
2018-12-14T21:13:31.582Z,24.73
2018-12-14T21:16:01.587Z,23.33
2018-12-14T21:18:31.613Z,21.17
2018-12-14T21:21:01.607Z,22.87
2018-12-14T21:23:31.606Z,24.87
2018-12-14T21:26:01.573Z,23.87
2018-12-14T21:28:31.615Z,26.50
2018-12-14T21:31:01.619Z,25.77
2018-12-14T21:33:31.619Z,23.87
2018-12-14T21:36:01.625Z,21.00
2018-12-14T21:38:31.663Z,23.37
2018-12-14T21:41:01.658Z,24.40
2018-12-14T21:43:31.689Z,35.80
2018-12-14T21:46:01.683Z,25.73
2018-12-14T21:48:31.746Z,21.27
2018-12-14T21:51:01.743Z,20.30
2018-12-14T21:53:31.790Z,22.57
2018-12-14T21:56:01.742Z,20.10
2018-12-14T21:58:31.874Z,18.57
2018-12-14T22:01:02.933Z,19.93
2018-12-14T22:03:34.107Z,19.40
2018-12-14T22:06:05.177Z,20.57
2018-12-14T22:08:36.536Z,20.53
2018-12-14T22:11:07.613Z,20.87
2018-12-14T22:13:39.114Z,19.63
2018-12-14T22:16:10.725Z,19.77
2018-12-14T22:18:41.835Z,17.83
2018-12-14T22:21:12.937Z,17.60
2018-12-14T22:23:44.108Z,18.27
2018-12-14T22:26:15.197Z,24.37
2018-12-14T22:28:46.329Z,34.90
2018-12-14T22:31:17.472Z,41.50
2018-12-14T22:33:48.562Z,26.03
2018-12-14T22:36:19.483Z,22.13
2018-12-14T22:38:50.521Z,22.50
2018-12-14T22:41:21.602Z,23.23
2018-12-14T22:43:52.708Z,21.47
2018-12-14T22:46:23.644Z,23.60
2018-12-14T22:48:54.916Z,25.20
2018-12-14T22:51:26.022Z,31.17
2018-12-14T22:53:57.318Z,30.90
2018-12-14T22:56:28.431Z,31.60
2018-12-14T22:58:59.632Z,39.90
2018-12-14T23:01:30.755Z,25.77
2018-12-14T23:04:01.925Z,22.20
2018-12-14T23:06:33.153Z,21.47
2018-12-14T23:09:05.712Z,20.40
2018-12-14T23:11:37.395Z,20.77
2018-12-14T23:14:08.599Z,21.03
2018-12-14T23:16:39.628Z,19.73
2018-12-14T23:19:10.866Z,19.37
2018-12-14T23:21:42.000Z,18.67
2018-12-14T23:24:14.235Z,19.67
2018-12-14T23:26:45.281Z,19.27
2018-12-14T23:29:16.435Z,19.03
2018-12-14T23:31:47.482Z,20.80
2018-12-14T23:34:18.539Z,18.60
2018-12-14T23:36:49.559Z,18.77
2018-12-14T23:39:20.698Z,19.20
2018-12-14T23:41:51.745Z,20.63
2018-12-14T23:44:23.035Z,18.07
2018-12-14T23:46:58.748Z,18.80
2018-12-14T23:49:27.447Z,18.67
2018-12-14T23:51:58.555Z,19.77
2018-12-14T23:54:29.691Z,18.37
2018-12-14T23:57:00.799Z,19.23
2018-12-14T23:59:31.837Z,20.37
